createdAt,value
2022-09-12T00:00:44.352Z,24.30
2022-09-12T00:03:11.071Z,24.30
2022-09-12T00:05:42.401Z,24.30
2022-09-12T00:08:09.287Z,24.30
2022-09-12T00:10:40.084Z,24.30
2022-09-12T00:13:07.360Z,24.30
2022-09-12T00:15:38.871Z,24.30
2022-09-12T00:18:05.976Z,24.40
2022-09-12T00:20:32.692Z,24.40
2022-09-12T00:22:59.402Z,24.40
2022-09-12T00:25:26.453Z,24.40
2022-09-12T00:27:53.162Z,24.30
2022-09-12T00:30:19.871Z,24.30
2022-09-12T00:32:47.207Z,24.30
2022-09-12T00:35:13.950Z,24.30
2022-09-12T00:37:40.684Z,24.30
2022-09-12T00:40:07.913Z,24.20
2022-09-12T00:42:34.739Z,24.20
2022-09-12T00:45:01.453Z,24.20
2022-09-12T00:47:28.610Z,24.20
2022-09-12T00:50:04.667Z,24.20
2022-09-12T00:53:14.766Z,24.20
2022-09-12T00:55:42.617Z,24.20
2022-09-12T00:58:30.281Z,24.20
2022-09-12T01:00:57.876Z,24.30
2022-09-12T01:03:24.674Z,24.30
2022-09-12T01:05:59.979Z,24.30
2022-09-12T01:08:27.329Z,24.30
2022-09-12T01:10:54.046Z,24.30
2022-09-12T01:13:20.779Z,24.30
2022-09-12T01:15:47.571Z,24.20
2022-09-12T01:18:22.104Z,24.20
2022-09-12T01:21:05.841Z,24.20
2022-09-12T01:23:43.895Z,24.20
2022-09-12T01:26:13.434Z,24.20
2022-09-12T01:28:53.252Z,24.10
2022-09-12T01:31:34.865Z,24.10
2022-09-12T01:34:19.902Z,24.10
2022-09-12T01:37:09.994Z,24.10
2022-09-12T01:39:50.180Z,24.10
2022-09-12T01:42:40.386Z,24.10
2022-09-12T01:45:35.327Z,24.20
2022-09-12T01:48:15.655Z,24.20
2022-09-12T01:51:07.426Z,24.20
2022-09-12T01:53:37.171Z,24.30
2022-09-12T01:56:08.630Z,24.20
2022-09-12T01:58:47.746Z,24.20
2022-09-12T02:01:34.020Z,24.20
2022-09-12T02:04:15.726Z,24.10
2022-09-12T02:06:49.643Z,24.10
2022-09-12T02:09:23.472Z,24.10
2022-09-12T02:11:51.252Z,24.00
2022-09-12T02:14:21.667Z,24.00
2022-09-12T02:17:02.521Z,24.10
2022-09-12T02:19:31.463Z,24.00
2022-09-12T02:22:02.396Z,24.00
2022-09-12T02:24:31.855Z,24.00
2022-09-12T02:27:01.516Z,24.00
2022-09-12T02:29:28.282Z,24.10
2022-09-12T02:31:57.154Z,24.10
2022-09-12T02:34:44.137Z,24.10
2022-09-12T02:37:56.244Z,24.20
2022-09-12T02:40:23.610Z,24.10
2022-09-12T02:42:50.564Z,24.10
2022-09-12T02:45:17.344Z,24.10
2022-09-12T02:48:00.719Z,24.00
2022-09-12T02:50:27.606Z,24.10
2022-09-12T02:52:59.657Z,24.00
2022-09-12T02:55:27.491Z,24.00
2022-09-12T02:57:54.681Z,24.00
2022-09-12T03:00:21.423Z,24.00
2022-09-12T03:02:58.122Z,24.00
2022-09-12T03:05:37.963Z,24.00
2022-09-12T03:08:16.646Z,24.00
2022-09-12T03:11:04.581Z,24.00
2022-09-12T03:13:57.223Z,24.00
2022-09-12T03:16:46.559Z,24.10
2022-09-12T03:19:22.286Z,24.10
2022-09-12T03:21:55.413Z,24.10
2022-09-12T03:24:42.991Z,24.10
2022-09-12T03:27:16.359Z,24.00
2022-09-12T03:29:43.293Z,24.00
2022-09-12T03:32:09.993Z,24.00
2022-09-12T03:34:36.792Z,24.00
2022-09-12T03:37:03.586Z,24.00
2022-09-12T03:39:30.358Z,24.00
2022-09-12T03:41:57.654Z,24.00
2022-09-12T03:44:24.603Z,23.90
2022-09-12T03:46:51.348Z,24.00
2022-09-12T03:49:18.417Z,23.90
2022-09-12T03:51:45.188Z,23.90
2022-09-12T03:54:11.951Z,23.90
2022-09-12T03:56:38.924Z,23.90
2022-09-12T03:59:06.791Z,24.00
2022-09-12T04:01:33.795Z,24.00
2022-09-12T04:04:00.749Z,24.00
2022-09-12T04:06:27.719Z,24.00
2022-09-12T04:08:54.574Z,24.00
2022-09-12T04:11:21.659Z,24.00
2022-09-12T04:13:48.610Z,24.00
2022-09-12T04:16:15.817Z,24.00
2022-09-12T04:18:42.870Z,24.00
2022-09-12T04:21:11.874Z,23.90
2022-09-12T04:23:38.649Z,23.90
2022-09-12T04:26:06.550Z,23.90
2022-09-12T04:28:34.502Z,23.90
2022-09-12T04:31:09.167Z,23.90
2022-09-12T04:33:36.334Z,23.90
2022-09-12T04:36:05.256Z,23.90
2022-09-12T04:38:32.377Z,23.90
2022-09-12T04:40:59.440Z,23.90
2022-09-12T04:43:26.164Z,23.90
2022-09-12T04:45:53.005Z,23.90
2022-09-12T04:48:19.785Z,24.00
2022-09-12T04:50:46.596Z,23.90
2022-09-12T04:53:13.316Z,24.00
2022-09-12T04:55:41.726Z,24.00
2022-09-12T04:58:08.553Z,24.00
2022-09-12T05:00:35.263Z,24.00
2022-09-12T05:03:02.002Z,24.00
2022-09-12T05:05:28.930Z,24.00
2022-09-12T05:07:55.966Z,23.90
2022-09-12T05:10:23.886Z,24.00
2022-09-12T05:12:50.739Z,24.00
2022-09-12T05:15:18.031Z,24.00
2022-09-12T05:17:44.824Z,23.90
2022-09-12T05:20:12.820Z,24.00
2022-09-12T05:22:39.550Z,24.00
2022-09-12T05:25:06.891Z,24.00
2022-09-12T05:27:33.622Z,24.00
2022-09-12T05:30:00.877Z,24.00
2022-09-12T05:32:31.759Z,24.00
2022-09-12T05:34:58.936Z,24.00
2022-09-12T05:37:26.011Z,24.00
2022-09-12T05:39:52.946Z,24.00
2022-09-12T05:42:19.721Z,24.00
2022-09-12T05:44:46.542Z,24.00
2022-09-12T05:47:13.244Z,24.00
2022-09-12T05:49:40.057Z,24.00
2022-09-12T05:52:07.009Z,24.00
2022-09-12T05:54:34.394Z,23.90
2022-09-12T05:57:01.218Z,23.40
2022-09-12T05:59:29.251Z,22.20
2022-09-12T06:01:56.283Z,21.30
2022-09-12T06:04:23.780Z,20.60
2022-09-12T06:06:51.895Z,20.20
2022-09-12T06:09:19.052Z,20.30
2022-09-12T06:11:46.238Z,21.00
2022-09-12T06:14:14.864Z,21.50
2022-09-12T06:16:42.146Z,21.90
2022-09-12T06:19:15.323Z,22.20
2022-09-12T06:21:42.336Z,22.30
2022-09-12T06:24:09.179Z,22.40
2022-09-12T06:26:36.558Z,22.50
2022-09-12T06:29:03.487Z,22.50
2022-09-12T06:31:33.401Z,22.50
2022-09-12T06:34:08.518Z,22.50
2022-09-12T06:36:39.910Z,22.60
2022-09-12T06:39:09.162Z,22.70
2022-09-12T06:41:37.615Z,22.80
2022-09-12T06:44:06.958Z,22.80
2022-09-12T06:46:33.935Z,22.90
2022-09-12T06:49:01.819Z,22.90
2022-09-12T06:51:29.252Z,22.90
2022-09-12T06:53:57.069Z,23.00
2022-09-12T06:56:25.410Z,23.00
2022-09-12T06:58:52.353Z,23.00
2022-09-12T07:01:23.908Z,23.00
2022-09-12T07:03:52.787Z,23.10
2022-09-12T07:06:20.877Z,23.10
2022-09-12T07:08:47.821Z,23.10
2022-09-12T07:11:19.019Z,23.10
2022-09-12T07:13:47.770Z,23.10
2022-09-12T07:16:19.269Z,23.20
2022-09-12T07:18:50.767Z,23.10
2022-09-12T07:21:17.518Z,23.10
2022-09-12T07:23:45.530Z,23.10
2022-09-12T07:26:13.128Z,23.20
2022-09-12T07:28:40.111Z,23.20
2022-09-12T07:31:14.407Z,23.20
2022-09-12T07:33:42.128Z,23.20
2022-09-12T07:36:11.669Z,23.20
2022-09-12T07:38:41.396Z,23.20
2022-09-12T07:41:15.541Z,23.30
2022-09-12T07:43:42.292Z,23.20
2022-09-12T07:46:09.264Z,23.20
2022-09-12T07:48:37.002Z,23.30
2022-09-12T07:51:08.926Z,23.30
2022-09-12T07:53:37.993Z,23.30
2022-09-12T07:56:06.119Z,23.40
2022-09-12T07:58:34.307Z,23.40
2022-09-12T08:01:13.390Z,23.40
2022-09-12T08:03:41.216Z,23.40
2022-09-12T08:06:09.576Z,23.40
2022-09-12T08:08:36.940Z,23.40
2022-09-12T08:11:07.076Z,23.50
2022-09-12T08:13:35.569Z,23.50
2022-09-12T08:16:04.770Z,23.50
2022-09-12T08:18:32.878Z,23.50
2022-09-12T08:21:00.862Z,23.60
2022-09-12T08:23:28.709Z,23.70
2022-09-12T08:26:01.330Z,23.70
2022-09-12T08:28:31.503Z,23.60
2022-09-12T08:31:02.463Z,23.60
2022-09-12T08:33:33.284Z,23.70
2022-09-12T08:36:22.760Z,23.70
2022-09-12T08:38:51.164Z,23.70
2022-09-12T08:41:35.698Z,23.90
2022-09-12T08:44:17.276Z,23.80
2022-09-12T08:47:10.792Z,23.80
2022-09-12T08:50:09.665Z,23.70
2022-09-12T08:53:04.839Z,23.70
2022-09-12T08:55:36.106Z,23.50
2022-09-12T08:58:22.770Z,23.30
2022-09-12T09:01:15.453Z,23.20
2022-09-12T09:04:19.133Z,23.20
2022-09-12T09:07:06.591Z,23.10
2022-09-12T09:09:59.169Z,23.00
2022-09-12T09:12:32.009Z,23.00
2022-09-12T09:15:24.819Z,23.10
2022-09-12T09:17:54.956Z,23.10
2022-09-12T09:20:50.965Z,23.10
2022-09-12T09:23:23.250Z,23.10
2022-09-12T09:26:08.931Z,23.10
2022-09-12T09:28:53.747Z,23.10
2022-09-12T09:31:22.285Z,23.20
2022-09-12T09:33:55.171Z,23.20
2022-09-12T09:36:51.758Z,23.30
2022-09-12T09:39:22.223Z,23.30
2022-09-12T09:42:26.024Z,23.30
2022-09-12T09:44:53.684Z,23.40
2022-09-12T09:47:20.682Z,23.50
2022-09-12T09:49:47.690Z,23.50
2022-09-12T09:52:16.343Z,23.50
2022-09-12T09:54:57.366Z,23.50
2022-09-12T09:57:36.135Z,23.70
2022-09-12T10:00:32.083Z,23.70
2022-09-12T10:03:14.266Z,23.70
2022-09-12T10:05:50.069Z,23.70
2022-09-12T10:08:24.293Z,23.70
2022-09-12T10:10:54.927Z,23.60
2022-09-12T10:13:37.610Z,23.60
2022-09-12T10:16:07.044Z,23.70
2022-09-12T10:18:38.688Z,23.80
2022-09-12T10:21:23.610Z,23.80
2022-09-12T10:24:00.371Z,23.90
2022-09-12T10:26:27.547Z,23.90
2022-09-12T10:28:54.888Z,24.00
2022-09-12T10:31:41.478Z,24.00
2022-09-12T10:34:25.272Z,24.00
2022-09-12T10:36:54.147Z,24.10
2022-09-12T10:39:20.898Z,24.00
2022-09-12T10:41:47.641Z,24.00
2022-09-12T10:44:16.399Z,24.00
2022-09-12T10:46:43.162Z,24.00
2022-09-12T10:49:29.779Z,24.10
2022-09-12T10:51:59.435Z,24.10
2022-09-12T10:54:27.410Z,24.10
2022-09-12T10:57:25.566Z,24.10
2022-09-12T11:00:27.798Z,24.20
2022-09-12T11:02:58.861Z,24.20
2022-09-12T11:05:37.377Z,24.20
2022-09-12T11:08:10.764Z,24.30
2022-09-12T11:11:02.903Z,24.30
2022-09-12T11:13:45.306Z,24.30
2022-09-12T11:16:26.270Z,24.30
2022-09-12T11:19:06.532Z,24.30
2022-09-12T11:21:35.363Z,24.30
2022-09-12T11:24:35.394Z,24.30
2022-09-12T11:27:20.424Z,24.30
2022-09-12T11:29:51.108Z,24.30
2022-09-12T11:32:32.495Z,24.30
2022-09-12T11:35:27.637Z,24.30
2022-09-12T11:38:09.412Z,24.40
2022-09-12T11:40:56.493Z,24.30
2022-09-12T11:43:38.216Z,24.30
2022-09-12T11:46:37.894Z,24.50
2022-09-12T11:49:16.719Z,24.40
2022-09-12T11:52:08.562Z,24.40
2022-09-12T11:54:53.827Z,24.30
2022-09-12T11:57:45.812Z,24.20
2022-09-12T12:00:19.500Z,24.20
2022-09-12T12:03:05.193Z,24.30
2022-09-12T12:05:34.625Z,24.30
2022-09-12T12:08:04.349Z,24.20
2022-09-12T12:10:39.967Z,24.30
2022-09-12T12:13:16.051Z,24.20
2022-09-12T12:15:53.598Z,24.30
2022-09-12T12:18:30.322Z,24.20
2022-09-12T12:20:57.118Z,24.20
2022-09-12T12:23:31.655Z,24.30
2022-09-12T12:25:59.824Z,24.20
2022-09-12T12:28:42.220Z,24.20
2022-09-12T12:31:10.798Z,24.30
2022-09-12T12:33:37.708Z,24.20
2022-09-12T12:36:07.173Z,24.40
2022-09-12T12:38:37.167Z,24.70
2022-09-12T12:41:19.165Z,24.70
2022-09-12T12:43:50.012Z,24.50
2022-09-12T12:46:17.485Z,24.50
2022-09-12T12:49:06.378Z,24.40
2022-09-12T12:51:49.948Z,24.30
2022-09-12T12:54:39.705Z,24.30
2022-09-12T12:57:18.994Z,24.40
2022-09-12T13:00:05.195Z,24.40
2022-09-12T13:02:49.014Z,24.50
2022-09-12T13:05:25.651Z,24.50
2022-09-12T13:07:58.471Z,24.50
2022-09-12T13:10:28.870Z,24.50
2022-09-12T13:12:57.548Z,24.50
2022-09-12T13:15:36.810Z,24.60
2022-09-12T13:18:11.199Z,24.60
2022-09-12T13:20:58.177Z,24.60
2022-09-12T13:23:29.586Z,24.60
2022-09-12T13:25:57.920Z,24.60
2022-09-12T13:28:26.379Z,24.60
2022-09-12T13:31:18.350Z,24.60
2022-09-12T13:33:49.169Z,24.70
2022-09-12T13:36:20.576Z,24.70
2022-09-12T13:39:11.217Z,24.70
2022-09-12T13:42:10.128Z,24.70
2022-09-12T13:44:51.106Z,24.60
2022-09-12T13:47:31.336Z,24.60
2022-09-12T13:49:58.126Z,24.60
2022-09-12T13:52:33.286Z,24.60
2022-09-12T13:55:00.226Z,24.70
2022-09-12T13:57:32.680Z,24.70
2022-09-12T14:00:00.196Z,24.70
2022-09-12T14:02:28.788Z,24.70
2022-09-12T14:05:09.188Z,24.70
2022-09-12T14:07:53.353Z,24.70
2022-09-12T14:10:23.804Z,24.60
2022-09-12T14:12:52.820Z,24.60
2022-09-12T14:15:24.057Z,24.60
2022-09-12T14:17:52.706Z,24.60
2022-09-12T14:20:20.366Z,24.60
2022-09-12T14:22:50.930Z,24.60
2022-09-12T14:25:22.260Z,24.60
2022-09-12T14:27:57.043Z,24.60
2022-09-12T14:30:37.269Z,24.60
2022-09-12T14:33:25.363Z,24.70
2022-09-12T14:35:53.200Z,24.70
2022-09-12T14:38:24.492Z,24.70
2022-09-12T14:41:01.711Z,24.70
2022-09-12T14:43:33.239Z,24.70
2022-09-12T14:46:23.245Z,24.80
2022-09-12T14:49:02.243Z,24.70
2022-09-12T14:51:32.750Z,24.80
2022-09-12T14:53:59.710Z,24.80
2022-09-12T14:56:44.185Z,24.90
2022-09-12T14:59:30.884Z,24.90
2022-09-12T15:02:36.376Z,24.80
2022-09-12T15:05:09.689Z,24.70
2022-09-12T15:07:56.088Z,24.80
2022-09-12T15:10:36.115Z,24.80
2022-09-12T15:13:05.924Z,24.80
2022-09-12T15:15:32.774Z,24.80
2022-09-12T15:18:02.367Z,24.80
2022-09-12T15:20:43.076Z,24.80
2022-09-12T15:23:19.178Z,24.90
2022-09-12T15:25:46.046Z,24.80
2022-09-12T15:28:22.726Z,24.90
2022-09-12T15:30:51.334Z,25.00
2022-09-12T15:33:19.221Z,25.00
2022-09-12T15:35:45.968Z,25.10
2022-09-12T15:38:12.812Z,25.10
2022-09-12T15:40:39.765Z,25.20
2022-09-12T15:43:06.657Z,25.10
2022-09-12T15:45:34.161Z,25.20
2022-09-12T15:48:01.246Z,25.20
2022-09-12T15:50:28.191Z,25.20
2022-09-12T15:52:55.686Z,25.20
2022-09-12T15:55:24.316Z,25.30
2022-09-12T15:57:51.155Z,25.20
2022-09-12T16:00:18.220Z,25.30
2022-09-12T16:02:46.284Z,25.30
2022-09-12T16:05:20.605Z,25.20
2022-09-12T16:07:47.455Z,25.30
2022-09-12T16:10:19.012Z,25.30
2022-09-12T16:12:46.199Z,25.30
2022-09-12T16:15:21.006Z,25.10
2022-09-12T16:17:47.884Z,25.10
2022-09-12T16:20:14.676Z,25.00
2022-09-12T16:22:41.560Z,25.00
2022-09-12T16:25:09.349Z,25.10
2022-09-12T16:27:36.191Z,25.10
2022-09-12T16:30:04.343Z,25.00
2022-09-12T16:32:31.505Z,25.10
2022-09-12T16:34:58.339Z,25.10
2022-09-12T16:37:25.062Z,25.00
2022-09-12T16:39:52.435Z,25.10
2022-09-12T16:42:19.460Z,25.10
2022-09-12T16:44:47.032Z,25.10
2022-09-12T16:47:14.487Z,25.10
2022-09-12T16:49:41.231Z,25.10
2022-09-12T16:52:08.241Z,25.20
2022-09-12T16:54:34.955Z,25.10
2022-09-12T16:57:02.602Z,25.20
2022-09-12T16:59:29.396Z,25.20
2022-09-12T17:01:56.164Z,25.30
2022-09-12T17:04:23.782Z,25.40
2022-09-12T17:06:50.664Z,25.40
2022-09-12T17:09:18.730Z,25.40
2022-09-12T17:11:47.469Z,25.30
2022-09-12T17:14:14.186Z,25.30
2022-09-12T17:16:42.719Z,25.30
2022-09-12T17:19:14.745Z,25.30
2022-09-12T17:21:41.494Z,25.30
2022-09-12T17:24:08.291Z,25.30
2022-09-12T17:26:35.141Z,25.30
2022-09-12T17:29:01.961Z,25.30
2022-09-12T17:31:29.098Z,25.30
2022-09-12T17:33:58.372Z,25.50
2022-09-12T17:36:25.540Z,25.60
2022-09-12T17:38:54.106Z,25.60
2022-09-12T17:41:22.649Z,25.60
2022-09-12T17:43:55.683Z,25.50
2022-09-12T17:46:23.616Z,25.50
2022-09-12T17:48:53.951Z,25.40
2022-09-12T17:51:21.706Z,25.40
2022-09-12T17:53:48.621Z,25.30
2022-09-12T17:56:15.717Z,25.30
2022-09-12T17:58:42.476Z,25.20
2022-09-12T18:01:32.203Z,25.20
2022-09-12T18:04:02.950Z,25.10
2022-09-12T18:06:30.581Z,25.10
2022-09-12T18:09:05.425Z,25.10
2022-09-12T18:11:32.693Z,25.10
2022-09-12T18:13:59.836Z,25.00
2022-09-12T18:16:26.771Z,25.00
2022-09-12T18:18:53.596Z,25.00
2022-09-12T18:21:20.308Z,25.00
2022-09-12T18:23:47.188Z,25.00
2022-09-12T18:26:14.029Z,25.00
2022-09-12T18:28:42.407Z,25.00
2022-09-12T18:31:17.174Z,25.10
2022-09-12T18:33:44.101Z,25.20
2022-09-12T18:36:12.073Z,25.20
2022-09-12T18:38:39.199Z,25.20
2022-09-12T18:41:19.720Z,25.20
2022-09-12T18:43:46.551Z,25.30
2022-09-12T18:46:17.708Z,25.30
2022-09-12T18:48:47.662Z,25.20
2022-09-12T18:51:19.230Z,25.30
2022-09-12T18:53:54.233Z,25.30
2022-09-12T18:56:21.301Z,25.20
2022-09-12T18:58:52.543Z,25.10
2022-09-12T19:01:23.579Z,25.00
2022-09-12T19:03:50.670Z,25.00
2022-09-12T19:06:19.047Z,25.00
2022-09-12T19:08:45.948Z,25.00
2022-09-12T19:11:13.206Z,25.00
2022-09-12T19:13:41.295Z,25.00
2022-09-12T19:16:09.394Z,25.00
2022-09-12T19:18:37.098Z,25.10
2022-09-12T19:21:13.003Z,25.30
2022-09-12T19:23:39.741Z,25.30
2022-09-12T19:26:07.692Z,25.40
2022-09-12T19:28:34.559Z,25.30
2022-09-12T19:31:05.827Z,25.20
2022-09-12T19:33:32.656Z,25.20
2022-09-12T19:36:04.317Z,25.20
2022-09-12T19:38:31.237Z,25.20
2022-09-12T19:41:02.635Z,25.20
2022-09-12T19:43:30.607Z,25.30
2022-09-12T19:45:57.410Z,25.30
2022-09-12T19:48:24.404Z,25.30
2022-09-12T19:50:51.281Z,25.30
2022-09-12T19:53:18.109Z,25.40
2022-09-12T19:55:45.215Z,25.40
2022-09-12T19:58:13.301Z,25.40
2022-09-12T20:00:40.055Z,25.30
2022-09-12T20:03:06.774Z,25.30
2022-09-12T20:05:33.681Z,25.40
2022-09-12T20:08:00.662Z,25.40
2022-09-12T20:10:27.448Z,25.40
2022-09-12T20:12:54.205Z,25.50
2022-09-12T20:15:21.989Z,25.50
2022-09-12T20:17:52.606Z,25.50
2022-09-12T20:20:19.344Z,25.50
2022-09-12T20:22:49.477Z,25.60
2022-09-12T20:25:17.244Z,25.50
2022-09-12T20:27:43.967Z,25.50
2022-09-12T20:30:12.270Z,25.50
2022-09-12T20:32:38.998Z,25.50
2022-09-12T20:35:06.409Z,25.50
2022-09-12T20:37:33.116Z,25.60
2022-09-12T20:39:59.872Z,25.60
2022-09-12T20:42:26.637Z,25.60
2022-09-12T20:44:53.505Z,25.50
2022-09-12T20:47:20.214Z,25.60
2022-09-12T20:49:46.907Z,25.50
2022-09-12T20:52:13.768Z,25.50
2022-09-12T20:54:40.890Z,25.50
2022-09-12T20:57:07.747Z,25.50
2022-09-12T20:59:35.238Z,25.50
2022-09-12T21:02:02.048Z,25.50
2022-09-12T21:04:28.889Z,25.50
2022-09-12T21:06:55.668Z,25.40
2022-09-12T21:09:22.670Z,25.40
2022-09-12T21:11:49.364Z,25.40
2022-09-12T21:14:16.072Z,25.40
2022-09-12T21:16:42.991Z,25.30
2022-09-12T21:19:10.727Z,25.30
2022-09-12T21:21:37.463Z,25.40
2022-09-12T21:24:04.457Z,25.40
2022-09-12T21:26:31.266Z,25.40
2022-09-12T21:28:58.042Z,25.40
2022-09-12T21:31:24.977Z,25.40
2022-09-12T21:33:51.778Z,25.30
2022-09-12T21:36:18.510Z,25.30
2022-09-12T21:38:45.251Z,25.30
2022-09-12T21:41:13.780Z,25.20
2022-09-12T21:43:40.770Z,25.20
2022-09-12T21:46:07.710Z,25.20
2022-09-12T21:48:34.713Z,25.20
2022-09-12T21:51:01.498Z,25.20
2022-09-12T21:53:28.251Z,25.20
2022-09-12T21:55:55.008Z,25.20
2022-09-12T21:58:21.743Z,25.20
2022-09-12T22:00:48.522Z,25.30
2022-09-12T22:03:16.789Z,25.20
2022-09-12T22:05:43.767Z,25.20
2022-09-12T22:08:11.089Z,25.20
2022-09-12T22:10:38.584Z,25.20
2022-09-12T22:13:05.702Z,25.20
2022-09-12T22:15:41.077Z,25.20
2022-09-12T22:18:08.180Z,25.10
2022-09-12T22:20:34.896Z,25.10
2022-09-12T22:23:24.355Z,25.10
2022-09-12T22:25:54.171Z,25.10
2022-09-12T22:28:21.326Z,25.10
2022-09-12T22:30:48.621Z,25.10
2022-09-12T22:33:15.362Z,25.20
2022-09-12T22:35:42.515Z,25.20
2022-09-12T22:38:09.281Z,25.20
2022-09-12T22:40:36.014Z,25.20
2022-09-12T22:43:02.784Z,25.20
2022-09-12T22:45:29.513Z,25.10
2022-09-12T22:48:00.432Z,25.10
2022-09-12T22:50:27.680Z,25.10
2022-09-12T22:52:54.393Z,25.00
2022-09-12T22:55:21.132Z,25.00
2022-09-12T22:57:48.450Z,25.00
2022-09-12T23:00:15.199Z,25.00
2022-09-12T23:02:42.509Z,25.00
2022-09-12T23:05:09.321Z,25.00
2022-09-12T23:07:36.035Z,25.00
2022-09-12T23:10:02.771Z,25.10
2022-09-12T23:12:31.213Z,25.10
2022-09-12T23:14:58.056Z,25.10
2022-09-12T23:17:24.752Z,25.10
2022-09-12T23:19:51.667Z,25.10
2022-09-12T23:22:18.705Z,25.10
2022-09-12T23:24:45.900Z,25.00
2022-09-12T23:27:12.609Z,25.00
2022-09-12T23:29:39.339Z,25.00
2022-09-12T23:32:06.720Z,25.00
2022-09-12T23:34:33.551Z,25.00
2022-09-12T23:37:00.278Z,25.00
2022-09-12T23:39:26.989Z,24.90
2022-09-12T23:41:53.682Z,25.00
2022-09-12T23:44:20.934Z,25.00
2022-09-12T23:46:47.661Z,25.00
2022-09-12T23:49:14.419Z,25.10
2022-09-12T23:51:41.117Z,25.10
2022-09-12T23:54:08.690Z,25.10
2022-09-12T23:56:35.453Z,25.10
2022-09-12T23:59:02.164Z,25.00
